»·PEaware :: N12RT KVNY-KIFP

N12RT :: KVNY-KIFP

FLIGHT INFORMATION

Flight Status: Arrived
Operator: Privately registered:
United States
More flights under this callsign
Pilot: Mounir D. (11581)
Aircraft: Unknown
(EPIC)
More flights by this aircraft type
Origin: KVNY Van Nuys
United States
Destination: KIFP Laughlin/Bullhead Intl
United States
More flights between these airports :: More routes between these airports
Route: +PMD HEC GFS
File this flight plan on PilotEdge
Remarks: / On my way to ABQ for SKYHIGH-2
Altitude:
(Current/Filed)
11,000ft
Speed:
(Current/Filed)
250kts
Departed: 08-Jul-18 11:07 AM
Arrived: 08-Jul-18 11:57 AM
Distance/Time
Traveled:
202nm/0:49
Distance/Time
To Go:
Arrived

Flight Plot

Page will automatically refresh every two minutes.


Map Options




Map Legend


Flown Route
Filed Route
Departure Airport
Arrival Airport
Navaid (VOR, NDB)
Fix

Horizontal Profiles

Position Reports

Time Latitude Longitude Heading Altitude Ground
Speed
08-Jul-18 10:58 34.205961 -118.487239 271 806ft 0kts
08-Jul-18 10:59 34.205961 -118.487239 271 806ft 0kts
08-Jul-18 11:00 34.205961 -118.487239 271 806ft 0kts
08-Jul-18 11:01 34.205961 -118.487239 271 806ft 0kts
08-Jul-18 11:02 34.205961 -118.487239 271 806ft 0kts
08-Jul-18 11:03 34.205941 -118.487357 247 806ft 5kts
08-Jul-18 11:04 34.207927 -118.488227 1 806ft 21kts
08-Jul-18 11:05 34.212992 -118.488636 355 806ft 17kts
08-Jul-18 11:06 34.217976 -118.489410 356 806ft 18kts
08-Jul-18 11:07 34.218905 -118.489825 245 806ft 6kts
08-Jul-18 11:08 34.188645 -118.495933 232 2198ft 179kts
08-Jul-18 11:09 34.204459 -118.564657 314 3114ft 257kts
08-Jul-18 11:10 34.267856 -118.598669 342 4980ft 253kts
08-Jul-18 11:11 34.334508 -118.585804 27 6757ft 252kts
08-Jul-18 11:12 34.358592 -118.514653 86 8518ft 256kts
08-Jul-18 11:13 34.370411 -118.430117 76 10319ft 255kts
08-Jul-18 11:14 34.388151 -118.346381 74 11582ft 269kts
08-Jul-18 11:15 34.408422 -118.255592 74 11585ft 291kts
08-Jul-18 11:16 34.429770 -118.160462 74 11584ft 295kts
08-Jul-18 11:17 34.451284 -118.064340 74 11477ft 298kts
08-Jul-18 11:18 34.472911 -117.967332 74 11473ft 297kts
08-Jul-18 11:19 34.494304 -117.870990 74 11473ft 297kts
08-Jul-18 11:20 34.515734 -117.774085 74 11473ft 297kts
08-Jul-18 11:21 34.537024 -117.677419 74 11473ft 297kts
08-Jul-18 11:22 34.551996 -117.609202 74 11473ft 297kts
08-Jul-18 11:23 34.572328 -117.516247 74 11473ft 297kts
08-Jul-18 11:24 34.593441 -117.419332 74 11473ft 297kts
08-Jul-18 11:25 34.614228 -117.323512 74 11474ft 297kts
08-Jul-18 11:26 34.634817 -117.228242 74 11474ft 300kts
08-Jul-18 11:27 34.656041 -117.129633 74 11473ft 302kts
08-Jul-18 11:28 34.677188 -117.030934 74 11473ft 303kts
08-Jul-18 11:29 34.698305 -116.931950 74 11473ft 303kts
08-Jul-18 11:30 34.719313 -116.833045 74 11473ft 303kts
08-Jul-18 11:31 34.740245 -116.734075 74 11473ft 303kts
08-Jul-18 11:32 34.761104 -116.635018 74 11473ft 302kts
08-Jul-18 11:33 34.781894 -116.535863 74 11473ft 302kts
08-Jul-18 11:34 34.804074 -116.437494 71 11473ft 302kts
08-Jul-18 11:35 34.829616 -116.340624 71 11473ft 302kts
08-Jul-18 11:36 34.854567 -116.246199 71 11473ft 302kts
08-Jul-18 11:37 34.880242 -116.148718 71 11473ft 302kts
08-Jul-18 11:38 34.905832 -116.051184 71 11473ft 302kts
08-Jul-18 11:39 34.931329 -115.953685 71 11473ft 302kts
08-Jul-18 11:40 34.956813 -115.855869 71 11473ft 302kts
08-Jul-18 11:41 34.982092 -115.758392 71 11537ft 302kts
08-Jul-18 11:42 35.007296 -115.660994 71 11537ft 302kts
08-Jul-18 11:43 35.032624 -115.563512 71 11536ft 302kts
08-Jul-18 11:44 35.058046 -115.465743 71 11536ft 302kts
08-Jul-18 11:45 35.083563 -115.367687 71 11536ft 303kts
08-Jul-18 11:46 35.107964 -115.273950 71 11538ft 303kts
08-Jul-18 11:47 35.132818 -115.178552 71 11253ft 304kts
08-Jul-18 11:48 35.157053 -115.085657 71 10691ft 302kts
08-Jul-18 11:49 35.182387 -114.988639 71 10101ft 299kts
08-Jul-18 11:50 35.207514 -114.892547 71 9415ft 297kts
08-Jul-18 11:51 35.232480 -114.797230 71 8926ft 294kts
08-Jul-18 11:52 35.273316 -114.713341 46 6076ft 267kts
08-Jul-18 11:53 35.303917 -114.646176 87 3896ft 219kts
08-Jul-18 11:54 35.285812 -114.584750 125 2272ft 187kts
08-Jul-18 11:55 35.247397 -114.566541 179 2309ft 174kts
08-Jul-18 11:56 35.196595 -114.562800 174 1750ft 172kts
08-Jul-18 11:57 35.164990 -114.560074 173 705ft 76kts
08-Jul-18 11:58 35.162566 -114.558907 32 705ft 9kts
08-Jul-18 11:59 35.160404 -114.556701 171 705ft 17kts
08-Jul-18 12:00 35.157779 -114.555906 169 705ft 0kts
08-Jul-18 12:01 35.157779 -114.555906 169 705ft 0kts
08-Jul-18 12:02 35.157779 -114.555906 169 705ft 0kts

Navigation Log

Ident Type
Flight plan parsing failed, navigation log unavailable